createdAt,value
2017-11-30T00:02:02.669Z,9.40
2017-11-30T00:04:30.128Z,10.23
2017-11-30T00:06:57.587Z,10.13
2017-11-30T00:09:25.046Z,10.00
2017-11-30T00:11:52.508Z,9.93
2017-11-30T00:14:19.991Z,10.63
2017-11-30T00:16:48.210Z,9.97
2017-11-30T00:19:15.693Z,10.20
2017-11-30T00:21:43.205Z,9.37
2017-11-30T00:24:11.432Z,9.67
2017-11-30T00:26:38.889Z,10.80
2017-11-30T00:29:06.338Z,9.77
2017-11-30T00:31:33.826Z,10.33
2017-11-30T00:34:01.279Z,9.43
2017-11-30T00:36:28.748Z,9.27
2017-11-30T00:38:56.204Z,8.90
2017-11-30T00:41:23.668Z,10.40
2017-11-30T00:43:51.108Z,10.83
2017-11-30T00:46:18.591Z,11.20
2017-11-30T00:48:46.071Z,11.47
2017-11-30T00:51:13.519Z,9.93
2017-11-30T00:53:40.970Z,10.43
2017-11-30T00:56:08.440Z,10.17
2017-11-30T00:58:35.903Z,11.37
2017-11-30T01:01:04.159Z,11.03
2017-11-30T01:03:31.595Z,11.77
2017-11-30T01:05:59.832Z,10.90
2017-11-30T01:08:27.308Z,10.37
2017-11-30T01:10:54.770Z,10.90
2017-11-30T01:13:22.226Z,11.83
2017-11-30T01:15:49.691Z,11.17
2017-11-30T01:18:17.154Z,11.30
2017-11-30T01:20:44.632Z,10.97
2017-11-30T01:23:12.100Z,10.77
2017-11-30T01:25:39.578Z,10.03
2017-11-30T01:28:07.809Z,10.93
2017-11-30T01:30:35.264Z,11.13
2017-11-30T01:35:37.569Z,10.77
2017-11-30T01:38:05.026Z,11.40
2017-11-30T01:40:33.266Z,12.03
2017-11-30T01:43:00.749Z,10.27
2017-11-30T01:45:28.209Z,10.50
2017-11-30T01:47:55.669Z,9.50
2017-11-30T01:50:23.127Z,9.73
2017-11-30T01:52:50.608Z,10.53
2017-11-30T01:55:18.080Z,10.37
2017-11-30T01:57:45.542Z,11.83
2017-11-30T02:00:13.006Z,10.57
2017-11-30T02:02:40.478Z,11.40
2017-11-30T02:05:07.944Z,10.97
2017-11-30T02:07:35.410Z,10.30
2017-11-30T02:10:02.892Z,10.60
2017-11-30T02:12:30.354Z,10.30
2017-11-30T02:14:58.582Z,10.47
2017-11-30T02:17:26.041Z,9.80
2017-11-30T02:19:53.518Z,10.80
2017-11-30T02:22:20.987Z,10.77
2017-11-30T02:24:48.458Z,11.13
2017-11-30T02:27:15.943Z,10.80
2017-11-30T02:29:43.407Z,10.97
2017-11-30T02:32:10.877Z,10.70
2017-11-30T02:34:39.116Z,10.77
2017-11-30T02:37:06.599Z,11.17
2017-11-30T02:39:34.067Z,11.90
2017-11-30T02:42:01.542Z,9.90
2017-11-30T02:44:29.780Z,10.67
2017-11-30T02:46:57.247Z,11.03
2017-11-30T02:49:24.732Z,10.30
2017-11-30T02:51:52.214Z,10.17
2017-11-30T02:54:20.451Z,9.97
2017-11-30T02:56:47.941Z,10.37
2017-11-30T02:59:15.413Z,11.03
2017-11-30T03:01:42.887Z,11.80
2017-11-30T03:04:10.371Z,10.77
2017-11-30T03:06:37.842Z,10.50
2017-11-30T03:09:05.299Z,11.23
2017-11-30T03:11:32.761Z,10.97
2017-11-30T03:14:00.236Z,11.37
2017-11-30T03:16:27.693Z,10.43
2017-11-30T03:18:55.168Z,10.67
2017-11-30T03:21:22.631Z,11.67
2017-11-30T03:23:50.104Z,11.23
2017-11-30T03:26:17.564Z,10.97
2017-11-30T03:28:45.035Z,10.13
2017-11-30T03:31:12.508Z,10.97
2017-11-30T03:33:40.749Z,10.27
2017-11-30T03:36:08.235Z,10.13
2017-11-30T03:38:35.744Z,10.50
2017-11-30T03:41:03.222Z,10.37
2017-11-30T03:43:30.709Z,10.67
2017-11-30T03:45:58.177Z,10.50
2017-11-30T03:48:25.652Z,9.60
2017-11-30T03:50:53.130Z,9.23
2017-11-30T03:53:21.366Z,10.17
2017-11-30T03:55:48.826Z,10.40
2017-11-30T03:58:16.524Z,9.53
2017-11-30T04:00:43.971Z,11.50
2017-11-30T04:03:11.443Z,9.73
2017-11-30T04:05:38.914Z,11.10
2017-11-30T04:08:06.399Z,10.97
2017-11-30T04:10:34.628Z,9.53
2017-11-30T04:13:02.100Z,10.67
2017-11-30T04:15:29.566Z,11.33
2017-11-30T04:17:57.047Z,10.70
2017-11-30T04:20:25.306Z,9.97
2017-11-30T04:22:52.767Z,10.37
2017-11-30T04:25:20.236Z,10.57
2017-11-30T04:27:47.732Z,10.47
2017-11-30T04:30:15.993Z,10.77
2017-11-30T04:32:43.443Z,10.40
2017-11-30T04:35:10.914Z,11.50
2017-11-30T04:37:38.375Z,10.73
2017-11-30T04:40:05.845Z,11.30
2017-11-30T04:42:33.666Z,10.80
2017-11-30T04:45:01.146Z,10.77
2017-11-30T04:47:28.614Z,10.90
2017-11-30T04:49:56.109Z,10.27
2017-11-30T04:52:24.336Z,10.97
2017-11-30T04:54:51.811Z,10.63
2017-11-30T04:57:19.279Z,10.43
2017-11-30T04:59:46.746Z,11.23
2017-11-30T05:02:14.211Z,10.73
2017-11-30T05:04:41.692Z,10.67
2017-11-30T05:07:09.144Z,10.23
2017-11-30T05:09:36.614Z,10.83
2017-11-30T05:12:04.076Z,10.90
2017-11-30T05:14:31.535Z,9.63
2017-11-30T05:16:58.997Z,10.13
2017-11-30T05:19:26.482Z,9.97
2017-11-30T05:21:54.730Z,9.13
2017-11-30T05:24:22.178Z,9.10
2017-11-30T05:26:49.657Z,9.13
2017-11-30T05:29:17.115Z,9.57
2017-11-30T05:31:44.578Z,10.17
2017-11-30T05:34:12.034Z,9.97
2017-11-30T05:36:39.511Z,10.47
2017-11-30T05:39:06.990Z,11.03
2017-11-30T05:41:34.481Z,9.27
2017-11-30T05:44:02.871Z,10.97
2017-11-30T05:46:30.347Z,9.83
2017-11-30T05:48:57.794Z,9.73
2017-11-30T05:51:25.267Z,10.60
2017-11-30T05:53:52.735Z,10.50
2017-11-30T05:56:20.214Z,10.17
2017-11-30T05:58:47.671Z,9.63
2017-11-30T06:01:15.142Z,10.20
2017-11-30T06:03:42.609Z,9.40
2017-11-30T06:06:10.083Z,9.20
2017-11-30T06:08:37.538Z,9.97
2017-11-30T06:11:05.008Z,9.47
2017-11-30T06:13:32.470Z,9.83
2017-11-30T06:15:59.937Z,9.67
2017-11-30T06:18:27.393Z,9.47
2017-11-30T06:20:54.854Z,9.90
2017-11-30T06:23:22.326Z,9.60
2017-11-30T06:25:49.807Z,8.83
2017-11-30T06:28:18.039Z,9.83
2017-11-30T06:30:45.520Z,9.73
2017-11-30T06:33:12.984Z,9.23
2017-11-30T06:35:40.459Z,9.57
2017-11-30T06:38:07.963Z,9.10
2017-11-30T06:40:35.404Z,8.83
2017-11-30T06:43:03.621Z,8.33
2017-11-30T06:45:31.086Z,9.23
2017-11-30T06:47:58.561Z,8.90
2017-11-30T06:50:26.020Z,8.93
2017-11-30T06:52:53.505Z,9.20
2017-11-30T06:55:22.478Z,8.90
2017-11-30T06:57:49.950Z,9.23
2017-11-30T07:00:18.185Z,9.57
2017-11-30T07:02:46.422Z,9.57
2017-11-30T07:05:13.915Z,9.10
2017-11-30T07:07:42.143Z,9.77
2017-11-30T07:10:09.607Z,9.80
2017-11-30T07:12:37.102Z,9.80
2017-11-30T07:15:04.563Z,9.10
2017-11-30T07:17:32.044Z,9.53
2017-11-30T07:20:00.305Z,9.90
2017-11-30T07:22:27.764Z,9.80
2017-11-30T07:24:55.248Z,10.10
2017-11-30T07:27:23.479Z,9.63
2017-11-30T07:29:50.943Z,10.00
2017-11-30T07:32:18.413Z,9.43
2017-11-30T07:34:45.867Z,9.80
2017-11-30T07:37:13.339Z,10.60
2017-11-30T07:39:41.028Z,10.73
2017-11-30T07:42:08.526Z,10.23
2017-11-30T07:44:36.761Z,11.07
2017-11-30T07:47:04.241Z,11.07
2017-11-30T07:49:31.699Z,10.63
2017-11-30T07:51:59.189Z,10.47
2017-11-30T07:54:27.435Z,9.83
2017-11-30T07:56:54.899Z,10.70
2017-11-30T07:59:22.363Z,9.50
2017-11-30T08:01:49.815Z,10.07
2017-11-30T08:04:17.275Z,8.87
2017-11-30T08:06:44.740Z,9.57
2017-11-30T08:09:12.205Z,9.10
2017-11-30T08:11:39.670Z,9.20
2017-11-30T08:14:07.140Z,10.13
2017-11-30T08:16:34.593Z,8.90
2017-11-30T08:19:02.073Z,9.90
2017-11-30T08:21:30.320Z,10.23
2017-11-30T08:23:57.801Z,10.23
2017-11-30T08:26:25.429Z,9.27
2017-11-30T08:28:52.887Z,9.40
2017-11-30T08:31:20.337Z,9.53
2017-11-30T08:33:47.804Z,9.73
2017-11-30T08:36:15.248Z,9.70
2017-11-30T08:38:43.480Z,9.43
2017-11-30T08:41:10.931Z,9.27
2017-11-30T08:43:38.405Z,10.00
2017-11-30T08:46:05.867Z,9.57
2017-11-30T08:48:33.347Z,10.00
2017-11-30T08:51:00.811Z,9.93
2017-11-30T08:53:28.267Z,9.93
2017-11-30T08:55:55.719Z,8.60
2017-11-30T08:58:23.200Z,9.40
2017-11-30T09:00:51.437Z,9.50
2017-11-30T09:03:18.893Z,8.13
2017-11-30T09:05:46.384Z,8.73
2017-11-30T09:08:13.865Z,9.13
2017-11-30T09:10:41.325Z,9.63
2017-11-30T09:13:08.787Z,8.27
2017-11-30T09:15:36.255Z,9.70
2017-11-30T09:18:03.736Z,9.60
2017-11-30T09:20:31.967Z,10.30
2017-11-30T09:22:59.424Z,8.73
2017-11-30T09:25:26.895Z,9.17
2017-11-30T09:27:54.360Z,9.70
2017-11-30T09:30:21.828Z,8.80
2017-11-30T09:32:49.292Z,9.17
2017-11-30T09:35:16.762Z,9.83
2017-11-30T09:37:44.239Z,9.17
2017-11-30T09:40:11.699Z,9.03
2017-11-30T09:42:39.168Z,9.80
2017-11-30T09:45:06.640Z,9.23
2017-11-30T09:47:34.247Z,10.37
2017-11-30T09:50:01.705Z,9.97
2017-11-30T09:52:29.166Z,10.47
2017-11-30T09:54:56.635Z,9.87
2017-11-30T09:57:24.109Z,9.90
2017-11-30T09:59:51.604Z,9.73
2017-11-30T10:02:19.046Z,9.93
2017-11-30T10:04:46.528Z,10.07
2017-11-30T10:07:14.002Z,10.10
2017-11-30T10:09:42.238Z,11.57
2017-11-30T10:12:09.717Z,11.00
2017-11-30T10:14:37.194Z,11.30
2017-11-30T10:17:04.651Z,11.07
2017-11-30T10:19:32.117Z,10.90
2017-11-30T10:21:59.598Z,9.77
2017-11-30T10:24:27.833Z,10.23
2017-11-30T10:26:55.295Z,10.37
2017-11-30T10:29:22.763Z,10.80
2017-11-30T10:31:50.248Z,10.17
2017-11-30T10:34:17.734Z,10.00
2017-11-30T10:36:45.983Z,9.67
2017-11-30T10:39:13.436Z,11.00
2017-11-30T10:41:40.904Z,9.80
2017-11-30T10:44:08.379Z,8.70
2017-11-30T10:46:35.856Z,8.30
2017-11-30T10:49:04.080Z,8.40
2017-11-30T10:51:31.552Z,8.33
2017-11-30T10:53:58.991Z,8.80
2017-11-30T10:56:26.461Z,8.10
2017-11-30T10:58:53.918Z,8.63
2017-11-30T11:01:21.410Z,8.07
2017-11-30T11:03:48.865Z,8.90
2017-11-30T11:06:16.358Z,7.80
2017-11-30T11:08:43.809Z,8.13
2017-11-30T11:11:11.272Z,8.90
2017-11-30T11:13:38.725Z,9.53
2017-11-30T11:16:06.205Z,9.33
2017-11-30T11:18:33.662Z,8.90
2017-11-30T11:21:02.135Z,9.83
2017-11-30T11:23:29.595Z,8.90
2017-11-30T11:25:57.065Z,9.40
2017-11-30T11:28:24.521Z,9.07
2017-11-30T11:30:51.985Z,9.57
2017-11-30T11:33:19.447Z,8.73
2017-11-30T11:35:46.919Z,8.77
2017-11-30T11:38:14.381Z,8.37
2017-11-30T11:40:41.829Z,8.63
2017-11-30T11:43:09.296Z,9.40
2017-11-30T11:45:36.751Z,8.33
2017-11-30T11:48:04.228Z,8.97
2017-11-30T11:50:31.683Z,8.30
2017-11-30T11:52:59.155Z,8.60
2017-11-30T11:55:26.621Z,8.30
2017-11-30T11:57:54.089Z,8.57
2017-11-30T12:00:21.539Z,8.07
2017-11-30T12:02:49.025Z,8.70
2017-11-30T12:05:16.493Z,8.37
2017-11-30T12:07:44.731Z,7.70
2017-11-30T12:10:12.203Z,8.37
2017-11-30T12:12:39.681Z,8.10
2017-11-30T12:15:07.131Z,8.40
2017-11-30T12:17:34.597Z,8.53
2017-11-30T12:20:02.075Z,8.30
2017-11-30T12:22:29.542Z,8.07
2017-11-30T12:24:56.984Z,6.87
2017-11-30T12:27:24.460Z,7.90
2017-11-30T12:29:51.927Z,7.87
2017-11-30T12:32:20.170Z,7.73
2017-11-30T12:34:47.662Z,7.50
2017-11-30T12:37:15.117Z,7.50
2017-11-30T12:39:42.586Z,6.83
2017-11-30T12:42:10.095Z,7.73
2017-11-30T12:44:37.548Z,7.20
2017-11-30T12:47:05.004Z,6.30
2017-11-30T12:49:33.250Z,6.50
2017-11-30T12:52:00.703Z,6.40
2017-11-30T12:54:28.172Z,5.93
2017-11-30T12:56:55.642Z,6.43
2017-11-30T12:59:23.100Z,5.70
2017-11-30T13:01:50.551Z,6.50
2017-11-30T13:04:18.036Z,6.13
2017-11-30T13:06:45.483Z,6.07
2017-11-30T13:09:12.969Z,5.53
2017-11-30T13:11:41.203Z,5.77
2017-11-30T13:14:08.665Z,5.80
2017-11-30T13:16:36.138Z,6.23
2017-11-30T13:19:03.597Z,5.97
2017-11-30T13:21:31.075Z,6.27
2017-11-30T13:23:58.545Z,5.90
2017-11-30T13:26:26.005Z,6.13
2017-11-30T13:28:53.482Z,6.07
2017-11-30T13:31:20.934Z,5.77
2017-11-30T13:33:48.422Z,6.00
2017-11-30T13:36:16.662Z,6.50
2017-11-30T13:38:44.125Z,6.37
2017-11-30T13:41:11.595Z,6.40
2017-11-30T13:43:39.049Z,6.23
2017-11-30T13:46:06.502Z,6.87
2017-11-30T13:48:33.969Z,6.50
2017-11-30T13:51:01.426Z,6.40
2017-11-30T13:53:28.936Z,5.37
2017-11-30T13:55:57.145Z,6.00
2017-11-30T13:58:24.610Z,5.87
2017-11-30T14:00:52.090Z,6.17
2017-11-30T14:03:20.302Z,6.07
2017-11-30T14:05:47.775Z,8.77
2017-11-30T14:08:16.002Z,6.80
2017-11-30T14:10:43.498Z,6.43
2017-11-30T14:13:10.961Z,6.87
2017-11-30T14:15:38.441Z,6.87
2017-11-30T14:18:05.907Z,5.63
2017-11-30T14:20:33.380Z,5.50
2017-11-30T14:23:01.606Z,4.33
2017-11-30T14:25:29.080Z,4.30
2017-11-30T14:27:56.529Z,4.53
2017-11-30T14:30:24.001Z,5.10
2017-11-30T14:32:51.456Z,5.17
2017-11-30T14:35:18.916Z,4.80
2017-11-30T14:37:46.372Z,5.57
2017-11-30T14:40:13.845Z,4.83
2017-11-30T14:42:41.301Z,5.57
2017-11-30T14:45:08.790Z,5.37
2017-11-30T14:47:36.243Z,6.00
2017-11-30T14:50:03.710Z,4.57
2017-11-30T14:52:31.168Z,6.20
2017-11-30T14:54:58.677Z,6.37
2017-11-30T14:57:26.914Z,6.53
2017-11-30T14:59:54.389Z,6.30
2017-11-30T15:02:21.833Z,5.87
2017-11-30T15:04:49.300Z,5.13
2017-11-30T15:07:17.591Z,5.23
2017-11-30T15:09:45.071Z,4.50
2017-11-30T15:12:13.289Z,4.90
2017-11-30T15:14:40.760Z,5.33
2017-11-30T15:17:08.237Z,5.60
2017-11-30T15:19:35.710Z,5.40
2017-11-30T15:22:03.187Z,5.20
2017-11-30T15:24:30.648Z,6.20
2017-11-30T15:26:58.138Z,5.20
2017-11-30T15:29:26.391Z,5.20
2017-11-30T15:31:53.853Z,4.67
2017-11-30T15:34:21.314Z,5.50
2017-11-30T15:36:48.788Z,6.53
2017-11-30T15:39:16.246Z,7.57
2017-11-30T15:41:43.706Z,8.00
2017-11-30T15:44:11.182Z,6.33
2017-11-30T15:46:38.664Z,4.67
2017-11-30T15:49:06.123Z,4.40
2017-11-30T15:51:34.368Z,3.10
2017-11-30T15:54:01.832Z,2.80
2017-11-30T15:56:29.286Z,2.70
2017-11-30T15:58:56.741Z,2.50
2017-11-30T16:01:24.211Z,2.60
2017-11-30T16:03:51.664Z,2.63
2017-11-30T16:06:19.134Z,2.50
2017-11-30T16:08:46.588Z,2.30
2017-11-30T16:11:14.055Z,2.30
2017-11-30T16:13:41.505Z,2.60
2017-11-30T16:16:08.957Z,2.50
2017-11-30T16:18:36.430Z,2.60
2017-11-30T16:21:03.901Z,2.70
2017-11-30T16:23:31.354Z,2.50
2017-11-30T16:25:58.842Z,2.83
2017-11-30T16:28:26.333Z,2.73
2017-11-30T16:30:54.560Z,3.13
2017-11-30T16:33:22.029Z,3.40
2017-11-30T16:35:49.469Z,3.50
2017-11-30T16:38:16.948Z,3.20
2017-11-30T16:40:44.414Z,3.33
2017-11-30T16:43:11.918Z,3.73
2017-11-30T16:45:39.336Z,4.30
2017-11-30T16:48:06.825Z,4.60
2017-11-30T16:50:34.289Z,4.37
2017-11-30T16:53:01.766Z,4.30
2017-11-30T16:55:29.977Z,4.20
2017-11-30T16:57:57.462Z,4.13
2017-11-30T17:00:24.941Z,4.93
2017-11-30T17:02:52.417Z,4.60
2017-11-30T17:05:19.901Z,5.13
2017-11-30T17:07:48.149Z,5.17
2017-11-30T17:10:15.643Z,5.47
2017-11-30T17:12:43.892Z,5.57
2017-11-30T17:15:11.345Z,6.57
2017-11-30T17:17:38.810Z,6.67
2017-11-30T17:20:06.341Z,7.87
2017-11-30T17:22:33.817Z,7.87
2017-11-30T17:25:01.278Z,5.70
2017-11-30T17:27:28.757Z,7.33
2017-11-30T17:29:56.232Z,7.30
2017-11-30T17:32:23.709Z,7.63
2017-11-30T17:34:51.188Z,7.27
2017-11-30T17:37:19.428Z,8.53
2017-11-30T17:39:46.912Z,8.77
2017-11-30T17:42:14.383Z,10.10
2017-11-30T17:44:41.864Z,10.50
2017-11-30T17:47:10.122Z,12.83
2017-11-30T17:49:37.616Z,11.37
2017-11-30T17:52:05.103Z,11.13
2017-11-30T17:54:32.587Z,12.00
2017-11-30T17:57:00.070Z,10.30
2017-11-30T17:59:27.540Z,9.47
2017-11-30T18:01:55.006Z,8.90
2017-11-30T18:04:23.238Z,7.53
2017-11-30T18:06:50.705Z,7.53
2017-11-30T18:09:18.175Z,7.73
2017-11-30T18:11:45.638Z,8.03
2017-11-30T18:14:13.122Z,7.07
2017-11-30T18:16:40.601Z,7.00
2017-11-30T18:19:08.844Z,8.50
2017-11-30T18:21:36.303Z,8.10
2017-11-30T18:24:03.782Z,7.37
2017-11-30T18:26:31.241Z,7.10
2017-11-30T18:28:58.708Z,7.33
2017-11-30T18:31:26.179Z,7.97
2017-11-30T18:33:53.661Z,7.47
2017-11-30T18:36:21.882Z,7.27
2017-11-30T18:38:49.353Z,7.43
2017-11-30T18:41:16.815Z,6.80
2017-11-30T18:43:44.328Z,7.83
2017-11-30T18:46:11.780Z,10.63
2017-11-30T18:48:39.261Z,6.43
2017-11-30T18:53:58.410Z,6.00
2017-11-30T18:56:25.900Z,5.40
2017-11-30T18:58:53.358Z,5.70
2017-11-30T19:01:21.589Z,6.10
2017-11-30T19:03:49.045Z,5.50
2017-11-30T19:06:16.516Z,5.17
2017-11-30T19:08:43.987Z,5.20
2017-11-30T19:11:11.474Z,5.30
2017-11-30T19:13:38.932Z,5.43
2017-11-30T19:16:06.443Z,5.80
2017-11-30T19:18:33.890Z,5.63
2017-11-30T19:21:02.141Z,5.67
2017-11-30T19:23:29.606Z,6.47
2017-11-30T19:25:57.088Z,6.77
2017-11-30T19:28:25.320Z,5.80
2017-11-30T19:30:52.790Z,6.80
2017-11-30T19:33:20.268Z,6.67
2017-11-30T19:35:47.734Z,6.50
2017-11-30T19:38:15.195Z,7.07
2017-11-30T19:40:42.652Z,5.83
2017-11-30T19:43:10.098Z,5.40
2017-11-30T19:48:51.758Z,6.10
2017-11-30T20:08:39.418Z,6.30
2017-11-30T20:11:08.084Z,6.90
2017-11-30T20:13:36.011Z,7.00
2017-11-30T20:16:03.670Z,6.53
2017-11-30T20:18:31.261Z,7.43
2017-11-30T20:21:00.133Z,7.20
2017-11-30T20:23:27.738Z,6.37
2017-11-30T20:25:56.319Z,5.60
2017-11-30T20:28:25.306Z,7.20
2017-11-30T20:30:53.054Z,6.93
2017-11-30T20:33:27.588Z,7.70
2017-11-30T20:35:55.382Z,8.47
2017-11-30T20:38:23.240Z,7.33
2017-11-30T20:40:51.725Z,7.83
2017-11-30T20:43:19.539Z,7.57
2017-11-30T20:45:47.318Z,7.07
2017-11-30T20:48:15.083Z,7.17
2017-11-30T20:50:44.055Z,6.83
2017-11-30T20:53:11.925Z,6.70
2017-11-30T20:55:40.314Z,6.27
2017-11-30T20:58:08.341Z,6.30
2017-11-30T21:00:37.368Z,6.27
2017-11-30T21:03:06.204Z,6.50
2017-11-30T21:05:33.678Z,6.70
2017-11-30T21:08:08.862Z,7.03
2017-11-30T21:10:37.404Z,6.80
2017-11-30T21:13:05.478Z,6.53
2017-11-30T21:15:33.066Z,6.47
2017-11-30T21:18:01.500Z,6.67
2017-11-30T21:20:29.989Z,6.50
2017-11-30T21:22:58.467Z,6.40
2017-11-30T21:25:26.807Z,7.17
2017-11-30T21:27:55.026Z,8.43
2017-11-30T21:30:23.809Z,28.53
2017-11-30T21:32:51.734Z,13.37
2017-11-30T21:35:20.443Z,8.97
2017-11-30T21:37:49.946Z,7.20
2017-11-30T21:40:18.256Z,6.50
2017-11-30T21:42:47.796Z,6.97
2017-11-30T21:45:15.683Z,6.50
2017-11-30T21:47:44.203Z,6.83
2017-11-30T21:50:11.971Z,6.60
2017-11-30T21:52:41.556Z,7.00
2017-11-30T21:55:09.830Z,7.13
2017-11-30T21:57:38.321Z,7.33
2017-11-30T22:00:08.751Z,7.70
2017-11-30T22:02:36.297Z,6.87
2017-11-30T22:05:11.985Z,7.30
2017-11-30T22:07:46.244Z,6.77
2017-11-30T22:10:18.697Z,7.47
2017-11-30T22:12:52.748Z,7.40
2017-11-30T22:15:22.194Z,7.50
2017-11-30T22:17:50.000Z,7.37
2017-11-30T22:20:18.090Z,7.90
2017-11-30T22:22:45.839Z,7.67
2017-11-30T22:25:15.018Z,7.53
2017-11-30T22:27:45.294Z,8.00
2017-11-30T22:30:15.717Z,7.97
2017-11-30T22:32:43.901Z,7.70
2017-11-30T22:35:28.760Z,7.23
2017-11-30T22:38:04.944Z,8.00
2017-11-30T22:40:34.245Z,8.03
2017-11-30T22:43:03.336Z,8.20
2017-11-30T22:45:31.785Z,8.20
2017-11-30T22:48:00.336Z,8.33
2017-11-30T22:50:29.388Z,8.50
2017-11-30T22:52:57.573Z,8.93
2017-11-30T22:55:25.816Z,8.97
2017-11-30T22:57:56.660Z,9.50
2017-11-30T23:00:25.797Z,7.90
2017-11-30T23:02:54.214Z,8.70
2017-11-30T23:05:22.826Z,7.73
2017-11-30T23:07:50.943Z,9.73
2017-11-30T23:10:20.032Z,8.93
2017-11-30T23:12:48.464Z,11.33
2017-11-30T23:15:16.768Z,10.87
2017-11-30T23:17:44.910Z,11.53
2017-11-30T23:20:15.324Z,9.53
2017-11-30T23:22:45.178Z,8.47
2017-11-30T23:25:14.527Z,9.23
2017-11-30T23:27:43.444Z,10.67
2017-11-30T23:30:13.032Z,9.23
2017-11-30T23:32:45.044Z,8.47
2017-11-30T23:35:14.049Z,10.47
2017-11-30T23:37:42.926Z,8.50
2017-11-30T23:40:10.863Z,8.90
2017-11-30T23:42:38.889Z,8.67
2017-11-30T23:45:07.004Z,8.17
2017-11-30T23:47:35.944Z,8.20
2017-11-30T23:50:06.072Z,8.47
2017-11-30T23:52:34.929Z,8.73
2017-11-30T23:55:03.262Z,8.80
2017-11-30T23:57:32.408Z,8.73
